Time;durP1;ratioP1;P1;durP2;ratioP2;P2;SDS_P1;SDS_P2;PMS_P1;PMS_P2;Temp;Humidity;BMP_temperature;BMP_pressure;BME280_temperature;BME280_humidity;BME280_pressure;Samples;Min_cycle;Max_cycle;Signal;HPM_P1;HPM_P2
2022/07/31 00:01:21;;;;;;;;;;;;;;;17.42;100.00;95918.03;10401648;28;1769;-67
2022/07/31 00:06:25;;;;;;;;;;;;;;;17.54;100.00;95918.22;10401508;28;1864;-69
2022/07/31 00:11:31;;;;;;;;;;;;;;;17.49;100.00;95904.78;10413091;28;1891;-69
2022/07/31 00:16:35;;;;;;;;;;;;;;;17.74;100.00;95903.28;10394819;28;1936;-67
2022/07/31 00:21:39;;;;;;;;;;;;;;;17.62;100.00;95908.50;10398404;28;1969;-68
2022/07/31 00:26:42;;;;;;;;;;;;;;;17.41;100.00;95912.91;10411157;28;1854;-68
2022/07/31 00:31:48;;;;;;;;;;;;;;;17.15;100.00;95902.72;10407082;28;1918;-69
2022/07/31 00:36:52;;;;;;;;;;;;;;;16.96;100.00;95896.72;10400241;28;1915;-68
2022/07/31 00:41:55;;;;;;;;;;;;;;;17.45;100.00;95905.75;10403864;28;2016;-68
2022/07/31 00:46:59;;;;;;;;;;;;;;;17.20;100.00;95897.16;10403042;28;1948;-69
2022/07/31 00:52:04;;;;;;;;;;;;;;;18.05;99.60;95900.47;10406735;28;1910;-72
2022/07/31 00:57:08;;;;;;;;;;;;;;;17.73;100.00;95906.34;10413984;28;1925;-69
2022/07/31 01:02:12;;;;;;;;;;;;;;;18.16;98.49;95906.41;10411100;28;1989;-71
2022/07/31 01:07:16;;;;;;;;;;;;;;;17.98;98.19;95907.50;10404462;28;2026;-67
2022/07/31 01:12:20;;;;;;;;;;;;;;;18.28;96.78;95914.75;10415903;28;2055;-69
2022/07/31 01:17:32;;;;;;;;;;;;;;;17.95;98.33;95908.16;10411342;28;1913;-68
2022/07/31 01:22:45;;;;;;;;;;;;;;;18.13;97.02;95907.03;10406826;28;2051;-68
2022/07/31 01:28:02;;;;;;;;;;;;;;;18.00;98.51;95908.00;10415251;28;2033;-68
2022/07/31 01:33:15;;;;;;;;;;;;;;;17.62;100.00;95897.63;10407669;28;1929;-70
2022/07/31 01:38:21;;;;;;;;;;;;;;;17.95;99.47;95902.72;10411048;28;1975;-69
2022/07/31 01:43:31;;;;;;;;;;;;;;;18.50;94.89;95899.38;10425513;28;1986;-73
2022/07/31 01:48:35;;;;;;;;;;;;;;;18.23;95.49;95895.84;10404714;28;1990;-69
2022/07/31 01:53:39;;;;;;;;;;;;;;;18.70;93.07;95885.13;10411892;28;2001;-70
2022/07/31 01:58:43;;;;;;;;;;;;;;;18.51;93.56;95896.38;10413346;28;1966;-68
2022/07/31 02:03:47;;;;;;;;;;;;;;;18.43;93.16;95888.97;10404278;28;2144;-72
2022/07/31 02:08:58;;;;;;;;;;;;;;;18.46;93.05;95888.34;10406367;28;2064;-69
2022/07/31 02:14:01;;;;;;;;;;;;;;;17.89;95.19;95885.75;10406545;28;2039;-69
2022/07/31 02:19:06;;;;;;;;;;;;;;;17.80;96.45;95890.34;10408897;28;1904;-69
2022/07/31 02:24:09;;;;;;;;;;;;;;;17.58;97.02;95891.22;10401680;28;2050;-69
2022/07/31 02:29:13;;;;;;;;;;;;;;;17.66;95.93;95892.38;10412206;28;1981;-68
2022/07/31 02:34:22;;;;;;;;;;;;;;;17.51;96.40;95896.34;10405823;28;1993;-70
2022/07/31 02:39:31;;;;;;;;;;;;;;;17.63;95.44;95893.81;10408806;28;2052;-71
2022/07/31 02:44:35;;;;;;;;;;;;;;;17.82;93.11;95886.22;10410652;28;1933;-71
2022/07/31 02:49:38;;;;;;;;;;;;;;;17.64;93.90;95883.75;10411487;28;2021;-68
2022/07/31 02:54:43;;;;;;;;;;;;;;;17.73;93.05;95884.59;10408745;28;1974;-67
2022/07/31 02:59:46;;;;;;;;;;;;;;;17.88;92.79;95875.16;10403952;28;1995;-67
2022/07/31 03:04:50;;;;;;;;;;;;;;;18.28;89.21;95876.66;10411494;28;1992;-67
2022/07/31 03:09:53;;;;;;;;;;;;;;;18.53;87.46;95883.22;10398982;28;2007;-68
2022/07/31 03:14:58;;;;;;;;;;;;;;;18.45;87.55;95880.50;10422490;28;2001;-68
2022/07/31 03:20:01;;;;;;;;;;;;;;;18.29;87.76;95883.69;10401942;28;1985;-69
2022/07/31 03:25:05;;;;;;;;;;;;;;;18.05;89.13;95886.06;10401997;28;1964;-68
2022/07/31 03:30:09;;;;;;;;;;;;;;;18.20;89.11;95879.38;10409388;28;1992;-69
2022/07/31 03:35:12;;;;;;;;;;;;;;;18.32;87.57;95883.06;10399577;28;2021;-69
2022/07/31 03:40:16;;;;;;;;;;;;;;;18.40;87.29;95881.47;10404709;28;1968;-69
2022/07/31 03:45:20;;;;;;;;;;;;;;;18.45;87.17;95881.31;10404093;28;1905;-70
2022/07/31 03:50:25;;;;;;;;;;;;;;;18.40;87.19;95883.41;10411505;28;1985;-70
2022/07/31 03:55:29;;;;;;;;;;;;;;;18.18;87.74;95874.25;10403160;28;2015;-69
2022/07/31 04:00:33;;;;;;;;;;;;;;;18.40;86.75;95877.94;10403995;28;1928;-69
2022/07/31 04:05:37;;;;;;;;;;;;;;;18.45;86.46;95877.75;10411501;28;1968;-71
2022/07/31 04:10:41;;;;;;;;;;;;;;;18.43;86.23;95877.28;10413331;28;1918;-69
2022/07/31 04:15:46;;;;;;;;;;;;;;;18.25;87.08;95890.91;10412338;28;1975;-67
2022/07/31 04:20:50;;;;;;;;;;;;;;;18.33;86.89;95884.66;10410203;28;1936;-70
2022/07/31 04:25:53;;;;;;;;;;;;;;;18.71;84.52;95883.25;10412083;28;2024;-70
2022/07/31 04:30:57;;;;;;;;;;;;;;;18.47;85.73;95887.22;10410818;28;2037;-69
2022/07/31 04:36:01;;;;;;;;;;;;;;;18.63;84.09;95895.69;10406268;28;2021;-70
2022/07/31 04:41:05;;;;;;;;;;;;;;;18.81;82.95;95889.13;10414117;28;2021;-69
2022/07/31 04:46:09;;;;;;;;;;;;;;;18.75;82.73;95890.41;10417021;28;1849;-69
2022/07/31 04:51:20;;;;;;;;;;;;;;;18.96;81.66;95896.00;10409960;28;1936;-69
2022/07/31 04:56:41;;;;;;;;;;;;;;;19.01;81.28;95898.53;10409390;28;1980;-71
2022/07/31 05:01:45;;;;;;;;;;;;;;;19.27;79.70;95898.47;10407003;28;1910;-69
2022/07/31 05:06:50;;;;;;;;;;;;;;;19.44;79.17;95903.84;10408710;28;2005;-70
2022/07/31 05:11:54;;;;;;;;;;;;;;;19.43;78.95;95899.53;10407192;28;1973;-70
2022/07/31 05:16:57;;;;;;;;;;;;;;;19.62;78.30;95895.63;10401238;28;1965;-69
2022/07/31 05:22:03;;;;;;;;;;;;;;;19.37;78.30;95884.50;10408291;28;2028;-68
2022/07/31 05:27:07;;;;;;;;;;;;;;;19.82;76.46;95883.19;10412590;28;2011;-69
2022/07/31 05:32:11;;;;;;;;;;;;;;;19.84;76.85;95892.63;10416170;28;1986;-68
2022/07/31 05:37:15;;;;;;;;;;;;;;;20.45;73.89;95892.25;10413796;28;1949;-69
2022/07/31 05:42:19;;;;;;;;;;;;;;;21.28;69.24;95897.56;10402730;28;2041;-69
2022/07/31 05:47:22;;;;;;;;;;;;;;;21.18;68.06;95911.63;10410249;28;2035;-69
2022/07/31 05:52:42;;;;;;;;;;;;;;;21.17;69.41;95906.50;10408240;28;1976;-69
2022/07/31 05:57:46;;;;;;;;;;;;;;;21.23;69.18;95911.41;10403814;28;1909;-70
2022/07/31 06:02:49;;;;;;;;;;;;;;;21.25;68.38;95913.84;10400812;28;1845;-69
2022/07/31 06:07:52;;;;;;;;;;;;;;;21.27;68.50;95912.34;10402527;28;1917;-68
2022/07/31 06:12:56;;;;;;;;;;;;;;;21.50;67.11;95911.94;10411063;28;1914;-69
2022/07/31 06:18:01;;;;;;;;;;;;;;;22.07;64.86;95924.72;10399804;28;1844;-70
2022/07/31 06:23:04;;;;;;;;;;;;;;;22.04;65.37;95920.75;10401252;28;1780;-69
2022/07/31 06:28:28;;;;;;;;;;;;;;;21.87;65.56;95920.97;10400457;28;1886;-70
2022/07/31 06:33:51;;;;;;;;;;;;;;;21.68;66.75;95924.28;10394654;28;1890;-71
2022/07/31 06:38:55;;;;;;;;;;;;;;;22.02;65.00;95925.78;10410418;28;1927;-69
2022/07/31 06:43:59;;;;;;;;;;;;;;;22.08;64.97;95916.19;10402128;28;1869;-68
2022/07/31 06:49:02;;;;;;;;;;;;;;;21.89;65.53;95913.25;10400612;28;1902;-70
2022/07/31 06:54:11;;;;;;;;;;;;;;;22.08;64.58;95918.94;10401190;28;1874;-71
2022/07/31 06:59:15;;;;;;;;;;;;;;;22.14;63.93;95916.78;10403450;28;1889;-72
2022/07/31 07:04:38;;;;;;;;;;;;;;;22.02;63.06;95928.53;10403630;28;1907;-69
2022/07/31 07:10:02;;;;;;;;;;;;;;;22.42;62.14;95924.28;10399798;28;1914;-73
2022/07/31 07:15:05;;;;;;;;;;;;;;;22.62;61.61;95932.31;10398232;28;1859;-70
2022/07/31 07:20:12;;;;;;;;;;;;;;;22.51;62.25;95927.66;10396003;28;1854;-72
2022/07/31 07:25:19;;;;;;;;;;;;;;;22.86;59.76;95927.91;10388979;28;2053;-70
2022/07/31 07:30:22;;;;;;;;;;;;;;;23.05;58.69;95919.84;10392440;28;2218;-70
2022/07/31 07:35:25;;;;;;;;;;;;;;;22.99;57.16;95926.72;10408756;28;2207;-72
2022/07/31 07:40:32;;;;;;;;;;;;;;;23.11;57.84;95923.94;10411739;28;1847;-71
2022/07/31 07:45:40;;;;;;;;;;;;;;;22.91;56.47;95933.19;10410770;28;1790;-71
2022/07/31 07:50:44;;;;;;;;;;;;;;;22.54;59.35;95924.25;10411000;28;1987;-69
2022/07/31 07:55:48;;;;;;;;;;;;;;;23.20;57.19;95910.84;10407515;28;1939;-72
2022/07/31 08:00:52;;;;;;;;;;;;;;;24.13;53.58;95907.69;10399971;28;1922;-71
2022/07/31 08:05:56;;;;;;;;;;;;;;;24.18;54.07;95903.88;10403494;28;1902;-69
2022/07/31 08:11:00;;;;;;;;;;;;;;;24.30;50.92;95903.75;10406458;28;2002;-73
2022/07/31 08:16:04;;;;;;;;;;;;;;;24.32;51.32;95903.41;10420238;28;1927;-72
2022/07/31 08:21:07;;;;;;;;;;;;;;;24.36;52.70;95901.53;10410417;28;1902;-70
2022/07/31 08:26:10;;;;;;;;;;;;;;;24.66;50.88;95897.09;10416646;28;1840;-70
2022/07/31 08:31:16;;;;;;;;;;;;;;;24.23;50.55;95901.63;10418252;28;1918;-71
2022/07/31 08:36:20;;;;;;;;;;;;;;;23.89;52.64;95897.72;10410157;28;1887;-70
2022/07/31 08:41:24;;;;;;;;;;;;;;;22.90;54.57;95901.41;10414468;28;1869;-68
2022/07/31 08:46:27;;;;;;;;;;;;;;;22.78;56.40;95890.50;10410374;28;1777;-68
2022/07/31 08:51:31;;;;;;;;;;;;;;;23.47;53.40;95889.19;10410427;28;1975;-71
2022/07/31 08:56:53;;;;;;;;;;;;;;;24.39;52.25;95887.09;10411868;28;1797;-72
2022/07/31 09:01:58;;;;;;;;;;;;;;;24.72;50.21;95887.41;10405178;28;1873;-70
2022/07/31 09:07:01;;;;;;;;;;;;;;;25.07;47.54;95886.56;10412207;28;1955;-70
2022/07/31 09:12:06;;;;;;;;;;;;;;;25.32;46.78;95889.75;10409594;28;1981;-70
2022/07/31 09:17:14;;;;;;;;;;;;;;;25.49;43.71;95874.72;10412288;28;1806;-70
2022/07/31 09:22:17;;;;;;;;;;;;;;;25.82;41.93;95874.09;10421693;28;1862;-70
2022/07/31 09:27:21;;;;;;;;;;;;;;;26.17;40.91;95873.84;10405643;28;2234;-71
2022/07/31 09:32:25;;;;;;;;;;;;;;;26.28;39.56;95861.03;10407100;28;1922;-71
2022/07/31 09:37:29;;;;;;;;;;;;;;;26.12;39.76;95868.66;10409662;28;1880;-72
2022/07/31 09:42:33;;;;;;;;;;;;;;;26.47;36.90;95865.66;10412748;28;1864;-71
2022/07/31 09:47:41;;;;;;;;;;;;;;;26.15;36.72;95867.94;10409885;28;1901;-71
2022/07/31 09:52:45;;;;;;;;;;;;;;;26.22;37.34;95862.53;10412940;28;1918;-69
2022/07/31 09:57:48;;;;;;;;;;;;;;;26.46;35.69;95864.03;10413641;28;1857;-70
2022/07/31 10:02:52;;;;;;;;;;;;;;;25.81;36.46;95856.78;10408710;28;1997;-71
2022/07/31 10:07:56;;;;;;;;;;;;;;;26.16;36.51;95858.50;10414075;28;1879;-70
2022/07/31 10:13:01;;;;;;;;;;;;;;;26.32;34.12;95853.59;10406764;28;2025;-72
2022/07/31 10:18:04;;;;;;;;;;;;;;;25.68;34.10;95841.59;10413105;28;1981;-74
2022/07/31 10:23:08;;;;;;;;;;;;;;;25.83;35.35;95843.47;10414242;28;1961;-70
2022/07/31 10:28:12;;;;;;;;;;;;;;;25.37;35.37;95839.13;10408054;28;1928;-70
2022/07/31 10:33:16;;;;;;;;;;;;;;;25.74;35.33;95842.91;10411364;28;2042;-71
2022/07/31 10:38:40;;;;;;;;;;;;;;;25.95;35.19;95833.38;10399685;28;1935;-70
2022/07/31 10:43:43;;;;;;;;;;;;;;;26.07;34.07;95841.44;10407895;28;2007;-71
2022/07/31 10:48:47;;;;;;;;;;;;;;;26.35;33.82;95835.53;10406367;28;1885;-75
2022/07/31 10:53:51;;;;;;;;;;;;;;;25.95;35.20;95836.13;10406277;28;1989;-71
2022/07/31 10:58:58;;;;;;;;;;;;;;;27.04;33.53;95837.91;10415594;28;2226;-71
2022/07/31 11:04:03;;;;;;;;;;;;;;;27.23;33.51;95832.25;10403190;28;1921;-70
2022/07/31 11:09:07;;;;;;;;;;;;;;;28.39;30.96;95818.94;10414517;28;2283;-70
2022/07/31 11:14:11;;;;;;;;;;;;;;;29.25;29.36;95811.69;10410029;28;1971;-70
2022/07/31 11:19:14;;;;;;;;;;;;;;;28.10;31.25;95807.69;10408838;28;1892;-71
2022/07/31 11:24:18;;;;;;;;;;;;;;;27.75;32.17;95805.50;10408342;28;1879;-73
2022/07/31 11:29:22;;;;;;;;;;;;;;;28.26;32.47;95801.88;10410117;28;1833;-71
2022/07/31 11:34:46;;;;;;;;;;;;;;;28.28;32.26;95793.97;10407813;28;1993;-71
2022/07/31 11:39:49;;;;;;;;;;;;;;;28.67;32.11;95809.97;10404874;28;1852;-70
2022/07/31 11:44:53;;;;;;;;;;;;;;;29.56;31.11;95804.63;10418331;28;1865;-71
2022/07/31 11:49:58;;;;;;;;;;;;;;;29.27;30.69;95796.28;10412218;28;1983;-71
2022/07/31 11:55:02;;;;;;;;;;;;;;;29.55;29.98;95798.31;10407507;28;1845;-70
2022/07/31 12:00:11;;;;;;;;;;;;;;;29.04;29.26;95802.19;10405961;28;2113;-71
2022/07/31 12:05:32;;;;;;;;;;;;;;;28.62;30.78;95802.03;10403715;28;1943;-70
2022/07/31 12:10:41;;;;;;;;;;;;;;;28.25;31.37;95803.06;10401449;28;1933;-71
2022/07/31 12:15:45;;;;;;;;;;;;;;;29.12;30.00;95791.91;10404061;28;1738;-70
2022/07/31 12:20:49;;;;;;;;;;;;;;;28.92;29.59;95785.94;10413146;28;1789;-70
2022/07/31 12:25:52;;;;;;;;;;;;;;;29.07;29.74;95782.03;10417378;28;1833;-71
2022/07/31 12:30:56;;;;;;;;;;;;;;;29.37;30.24;95769.00;10417664;28;1975;-71
2022/07/31 12:36:00;;;;;;;;;;;;;;;29.40;29.76;95766.25;10411122;28;1739;-71
2022/07/31 12:41:04;;;;;;;;;;;;;;;28.84;30.77;95770.50;10418295;28;1852;-72
2022/07/31 12:46:07;;;;;;;;;;;;;;;28.76;32.42;95763.38;10415587;28;1808;-71
2022/07/31 12:51:11;;;;;;;;;;;;;;;29.50;31.09;95759.09;10418715;28;1918;-71
2022/07/31 12:56:14;;;;;;;;;;;;;;;30.03;30.87;95756.28;10409521;28;1745;-71
2022/07/31 13:01:17;;;;;;;;;;;;;;;30.03;29.79;95750.75;10411077;28;1827;-71
2022/07/31 13:06:21;;;;;;;;;;;;;;;29.44;29.69;95742.09;10416496;28;1906;-71
2022/07/31 13:11:27;;;;;;;;;;;;;;;29.38;29.91;95743.69;10416057;28;1988;-69
2022/07/31 13:16:32;;;;;;;;;;;;;;;29.02;30.75;95732.63;10413658;28;1953;-72
2022/07/31 13:21:37;;;;;;;;;;;;;;;28.89;30.45;95725.84;10408246;28;1883;-72
2022/07/31 13:26:51;;;;;;;;;;;;;;;29.01;30.56;95722.72;10408944;28;1836;-73
2022/07/31 13:31:55;;;;;;;;;;;;;;;29.89;28.28;95726.59;10414225;28;1962;-71
2022/07/31 13:36:59;;;;;;;;;;;;;;;29.01;28.08;95719.97;10411210;28;1889;-71
2022/07/31 13:42:04;;;;;;;;;;;;;;;28.45;27.48;95720.63;10413502;28;2156;-71
2022/07/31 13:47:08;;;;;;;;;;;;;;;28.53;28.81;95717.47;10413301;28;2217;-71
2022/07/31 13:52:12;;;;;;;;;;;;;;;28.04;29.83;95723.56;10413689;28;2081;-72
2022/07/31 13:57:17;;;;;;;;;;;;;;;28.34;30.81;95715.03;10412121;28;1789;-70
2022/07/31 14:02:21;;;;;;;;;;;;;;;28.01;32.78;95711.34;10412101;28;1886;-70
2022/07/31 14:07:25;;;;;;;;;;;;;;;28.48;32.30;95712.31;10412098;28;2076;-71
2022/07/31 14:12:49;;;;;;;;;;;;;;;27.92;32.69;95710.88;10409695;28;1914;-71
2022/07/31 14:17:53;;;;;;;;;;;;;;;28.73;31.59;95717.91;10415683;28;1879;-72
2022/07/31 14:22:57;;;;;;;;;;;;;;;29.08;30.29;95694.28;10410756;28;1880;-72
2022/07/31 14:28:01;;;;;;;;;;;;;;;28.29;32.23;95709.88;10409217;28;1834;-73
2022/07/31 14:33:05;;;;;;;;;;;;;;;28.01;32.63;95697.53;10410273;28;1981;-71
2022/07/31 14:38:08;;;;;;;;;;;;;;;27.90;32.43;95696.69;10418474;28;2125;-73
2022/07/31 14:43:12;;;;;;;;;;;;;;;28.78;30.96;95687.09;10414031;28;1960;-71
2022/07/31 14:48:15;;;;;;;;;;;;;;;29.46;29.66;95686.34;10408814;28;1804;-71
2022/07/31 14:53:19;;;;;;;;;;;;;;;29.10;29.94;95688.34;10416493;28;1902;-71
2022/07/31 14:58:23;;;;;;;;;;;;;;;28.91;28.76;95681.97;10411674;28;1895;-71
2022/07/31 15:03:27;;;;;;;;;;;;;;;28.34;30.32;95681.88;10408571;28;1765;-70
2022/07/31 15:08:30;;;;;;;;;;;;;;;28.16;30.79;95681.78;10408909;28;1832;-71
2022/07/31 15:13:34;;;;;;;;;;;;;;;28.32;30.64;95675.16;10408499;28;2399;-71
2022/07/31 15:18:41;;;;;;;;;;;;;;;28.27;30.42;95681.81;10402322;28;1919;-71
2022/07/31 15:23:45;;;;;;;;;;;;;;;28.19;30.18;95683.00;10403226;28;1916;-72
2022/07/31 15:28:48;;;;;;;;;;;;;;;28.27;29.98;95671.56;10411401;28;1930;-71
2022/07/31 15:33:53;;;;;;;;;;;;;;;28.40;30.69;95663.72;10406964;28;1973;-74
2022/07/31 15:38:56;;;;;;;;;;;;;;;28.38;30.67;95660.56;10411400;28;1933;-70
2022/07/31 15:44:00;;;;;;;;;;;;;;;28.30;30.29;95653.41;10407883;28;1850;-72
2022/07/31 15:49:03;;;;;;;;;;;;;;;28.38;30.23;95649.50;10406825;28;1741;-72
2022/07/31 15:54:07;;;;;;;;;;;;;;;28.61;30.24;95646.38;10411039;28;2074;-72
2022/07/31 15:59:11;;;;;;;;;;;;;;;28.11;30.91;95648.22;10416633;28;1861;-71
2022/07/31 16:04:15;;;;;;;;;;;;;;;27.69;32.00;95647.66;10413784;28;1901;-71
2022/07/31 16:09:22;;;;;;;;;;;;;;;27.65;32.42;95649.56;10420390;28;1865;-71
2022/07/31 16:14:26;;;;;;;;;;;;;;;27.83;31.88;95652.44;10417201;28;1918;-71
2022/07/31 16:19:30;;;;;;;;;;;;;;;27.85;32.73;95639.03;10415258;28;1770;-70
2022/07/31 16:24:36;;;;;;;;;;;;;;;27.81;33.53;95641.00;10415733;28;1853;-71
2022/07/31 16:29:39;;;;;;;;;;;;;;;28.15;32.10;95629.69;10433118;28;1912;-72
2022/07/31 16:35:05;;;;;;;;;;;;;;;27.96;32.63;95622.50;10414309;28;1954;-72
2022/07/31 16:40:08;;;;;;;;;;;;;;;27.77;32.98;95615.34;10419019;28;1877;-71
2022/07/31 16:45:34;;;;;;;;;;;;;;;28.02;31.68;95616.22;10418248;28;1824;-70
2022/07/31 16:50:39;;;;;;;;;;;;;;;28.07;31.73;95605.97;10414909;28;1949;-71
2022/07/31 16:55:43;;;;;;;;;;;;;;;27.81;31.92;95609.84;10409155;28;1985;-72
2022/07/31 17:01:04;;;;;;;;;;;;;;;27.31;32.42;95609.56;10410743;28;1889;-72
2022/07/31 17:06:27;;;;;;;;;;;;;;;26.79;34.92;95617.88;10409269;28;1820;-71
2022/07/31 17:11:40;;;;;;;;;;;;;;;26.68;34.32;95612.25;10418405;28;1910;-70
2022/07/31 17:16:46;;;;;;;;;;;;;;;26.67;33.80;95604.38;10412995;28;1976;-72
2022/07/31 17:21:51;;;;;;;;;;;;;;;26.52;34.49;95608.16;10417590;28;1831;-72
2022/07/31 17:26:54;;;;;;;;;;;;;;;26.28;35.19;95615.81;10410265;28;1785;-71
2022/07/31 17:31:57;;;;;;;;;;;;;;;26.04;36.09;95613.56;10415488;28;1918;-75
2022/07/31 17:37:01;;;;;;;;;;;;;;;25.90;36.20;95611.47;10409999;28;1818;-70
2022/07/31 17:42:05;;;;;;;;;;;;;;;25.81;36.59;95620.00;10412799;28;1803;-71
2022/07/31 17:47:12;;;;;;;;;;;;;;;25.72;36.99;95622.22;10427189;28;1893;-72
2022/07/31 17:52:16;;;;;;;;;;;;;;;25.73;37.19;95623.84;10414915;28;1986;-72
2022/07/31 17:57:21;;;;;;;;;;;;;;;25.73;36.97;95629.34;10409720;28;1790;-73
2022/07/31 18:02:25;;;;;;;;;;;;;;;25.83;37.53;95628.69;10411474;28;1826;-71
2022/07/31 18:07:29;;;;;;;;;;;;;;;25.83;37.73;95628.69;10416791;28;1840;-72
2022/07/31 18:12:33;;;;;;;;;;;;;;;25.64;38.36;95633.50;10415137;28;1914;-71
2022/07/31 18:17:56;;;;;;;;;;;;;;;25.28;39.67;95641.31;10434223;28;1820;-72
2022/07/31 18:23:01;;;;;;;;;;;;;;;25.00;40.91;95638.88;10407448;28;1825;-71
2022/07/31 18:28:05;;;;;;;;;;;;;;;24.83;41.53;95642.16;10413204;28;2190;-70
2022/07/31 18:33:11;;;;;;;;;;;;;;;24.54;42.40;95638.94;10413135;28;1914;-73
2022/07/31 18:38:15;;;;;;;;;;;;;;;24.26;43.55;95642.75;10415838;28;1893;-71
2022/07/31 18:43:19;;;;;;;;;;;;;;;24.08;44.21;95627.88;10410462;28;1797;-73
2022/07/31 18:48:24;;;;;;;;;;;;;;;23.85;44.98;95627.81;10411010;28;1876;-73
2022/07/31 18:53:28;;;;;;;;;;;;;;;23.70;45.75;95635.00;10408540;28;2133;-75
2022/07/31 18:58:32;;;;;;;;;;;;;;;23.45;46.69;95637.19;10412691;28;1854;-75
2022/07/31 19:03:35;;;;;;;;;;;;;;;23.34;47.16;95635.34;10412103;28;1810;-72
2022/07/31 19:08:39;;;;;;;;;;;;;;;23.16;48.02;95646.75;10416375;28;1854;-72
2022/07/31 19:13:43;;;;;;;;;;;;;;;23.17;48.60;95647.53;10413515;28;2002;-70
2022/07/31 19:18:46;;;;;;;;;;;;;;;23.24;48.79;95647.69;10405968;28;1933;-73
2022/07/31 19:23:52;;;;;;;;;;;;;;;23.26;49.41;95655.56;10411312;28;1926;-71
2022/07/31 19:28:56;;;;;;;;;;;;;;;23.31;49.44;95649.81;10412643;28;1842;-73
2022/07/31 19:33:59;;;;;;;;;;;;;;;23.35;49.55;95647.91;10411600;28;1914;-71
2022/07/31 19:39:03;;;;;;;;;;;;;;;23.35;49.66;95653.41;10425669;28;1940;-71
2022/07/31 19:44:07;;;;;;;;;;;;;;;23.32;49.61;95654.91;10417443;28;1875;-70
2022/07/31 19:49:11;;;;;;;;;;;;;;;23.25;49.92;95660.25;10415545;28;1834;-71
2022/07/31 19:54:16;;;;;;;;;;;;;;;23.18;50.19;95655.41;10415057;28;1975;-72
2022/07/31 19:59:23;;;;;;;;;;;;;;;22.98;50.89;95656.50;10421149;28;1852;-72
2022/07/31 20:04:27;;;;;;;;;;;;;;;22.84;51.47;95648.72;10413054;28;2120;-71
2022/07/31 20:09:31;;;;;;;;;;;;;;;22.78;51.94;95641.13;10414128;28;2235;-68
2022/07/31 20:14:34;;;;;;;;;;;;;;;22.65;52.25;95643.97;10417240;28;1902;-71
2022/07/31 20:19:38;;;;;;;;;;;;;;;22.74;52.38;95646.50;10419057;28;1508;-72
2022/07/31 20:25:01;;;;;;;;;;;;;;;22.89;52.47;95636.69;10414733;28;1901;-71
2022/07/31 20:30:23;;;;;;;;;;;;;;;22.96;52.63;95644.28;10417244;28;1871;-72
2022/07/31 20:35:27;;;;;;;;;;;;;;;22.96;52.55;95642.34;10418711;28;1906;-72
2022/07/31 20:40:51;;;;;;;;;;;;;;;23.01;52.52;95639.34;10428720;28;1881;-71
2022/07/31 20:45:57;;;;;;;;;;;;;;;22.96;52.94;95645.09;10414548;28;1762;-72
2022/07/31 20:51:00;;;;;;;;;;;;;;;22.89;53.39;95636.69;10436010;28;1898;-72
2022/07/31 20:56:04;;;;;;;;;;;;;;;22.89;53.48;95631.22;10412575;28;1907;-72
2022/07/31 21:01:08;;;;;;;;;;;;;;;22.91;53.40;95629.72;10420928;28;1777;-71
2022/07/31 21:06:11;;;;;;;;;;;;;;;22.87;54.04;95628.03;10413234;28;2053;-72
2022/07/31 21:11:15;;;;;;;;;;;;;;;22.85;54.35;95627.59;10414907;28;1839;-71
2022/07/31 21:16:18;;;;;;;;;;;;;;;22.80;54.57;95616.88;10414286;28;1906;-72
2022/07/31 21:21:22;;;;;;;;;;;;;;;22.57;55.58;95617.50;10406706;28;1801;-71
2022/07/31 21:26:27;;;;;;;;;;;;;;;22.34;56.52;95611.88;10416518;28;1944;-71
2022/07/31 21:31:30;;;;;;;;;;;;;;;22.16;57.41;95610.63;10410956;28;1846;-70
2022/07/31 21:36:34;;;;;;;;;;;;;;;22.04;58.17;95618.88;10418791;28;1977;-74
2022/07/31 21:41:37;;;;;;;;;;;;;;;21.96;58.94;95617.91;10415712;28;1897;-71
2022/07/31 21:46:44;;;;;;;;;;;;;;;21.91;59.15;95609.94;10410591;28;1927;-74
2022/07/31 21:51:54;;;;;;;;;;;;;;;21.91;59.66;95609.13;10412431;28;1925;-75
2022/07/31 21:56:58;;;;;;;;;;;;;;;21.87;59.89;95609.03;10427785;28;1985;-71
2022/07/31 22:02:02;;;;;;;;;;;;;;;21.83;60.95;95610.88;10418386;28;2006;-71
2022/07/31 22:12:26;;;;;;;;;;;;;;;21.67;61.82;95610.84;10406250;28;2007;-72
2022/07/31 22:17:30;;;;;;;;;;;;;;;21.57;62.55;95608.63;10407746;28;1910;-71
2022/07/31 22:22:33;;;;;;;;;;;;;;;21.55;62.91;95608.16;10411360;28;1869;-71
2022/07/31 22:27:54;;;;;;;;;;;;;;;21.61;62.79;95612.22;10412023;28;2215;-72
2022/07/31 22:32:58;;;;;;;;;;;;;;;21.57;62.99;95609.41;10409061;28;1906;-73
2022/07/31 22:38:02;;;;;;;;;;;;;;;21.53;63.29;95600.28;10408268;28;1818;-72
2022/07/31 22:43:05;;;;;;;;;;;;;;;21.52;63.41;95615.13;10409934;28;1832;-71
2022/07/31 22:48:28;;;;;;;;;;;;;;;21.56;63.41;95607.78;10411483;28;1842;-71
2022/07/31 22:53:33;;;;;;;;;;;;;;;21.55;63.92;95608.94;10404987;28;1949;-71
2022/07/31 22:58:37;;;;;;;;;;;;;;;21.63;63.42;95600.94;10406744;28;2259;-71
2022/07/31 23:03:40;;;;;;;;;;;;;;;21.61;62.75;95605.97;10405309;28;1934;-72
2022/07/31 23:08:43;;;;;;;;;;;;;;;21.53;63.74;95605.75;10410858;28;2253;-71
2022/07/31 23:14:07;;;;;;;;;;;;;;;21.35;64.44;95604.47;10408152;28;1979;-70
2022/07/31 23:19:10;;;;;;;;;;;;;;;21.18;65.74;95608.22;10419870;28;1841;-70
2022/07/31 23:24:13;;;;;;;;;;;;;;;21.15;66.11;95606.19;10409449;28;1837;-71
2022/07/31 23:29:17;;;;;;;;;;;;;;;21.15;66.32;95610.88;10402155;28;2189;-70
2022/07/31 23:34:20;;;;;;;;;;;;;;;21.29;66.02;95601.16;10403978;28;1997;-70
2022/07/31 23:39:24;;;;;;;;;;;;;;;21.42;64.90;95599.19;10406892;28;1887;-71
2022/07/31 23:44:27;;;;;;;;;;;;;;;21.46;64.16;95596.56;10400711;28;2219;-71
2022/07/31 23:49:31;;;;;;;;;;;;;;;21.57;63.29;95603.16;10407342;28;1542;-70
2022/07/31 23:54:34;;;;;;;;;;;;;;;21.63;62.27;95600.94;10410283;28;1961;-71
2022/07/31 23:59:37;;;;;;;;;;;;;;;21.58;62.54;95602.78;10411213;28;1797;-70
